Watarrka Kings Canyon, Australia
Current Conditions -  °F | °C
As of 12:00 PM on Tuesday 23 Dec 2014 (Local Time) from YAYE Reporting Station
Scattered Clouds Scattered Clouds  
Wind Chill: 88°   Ceiling: Unl
Heat Index: 88°   Visibility: 6mi
Dew Point: 63°   Wind: 12mph
Humidity: 43%   Direction: 140°SE
Pressure: 29.94"   Gusts: NA
Location:  24.28°S, 131.53°E
Report Text: YAYE 230300Z AUTO 14010KT 090V160 9999 // SCT053 31/17 Q1014
Loading
Personal Weather Stations






























Interactive Weather Map New forecast layout! Learn more

10-Day Weather Forecast

Advertisements
Track Severe Weather on mobile